Latest Weather Observations for Rolleston Airport

IDQ60801

Issued at 11:32 pm EST Sunday 21 December 2014 (issued every 30 minutes, with the page automatically refreshed every 10 minutes)

About weather observations | Map of weather stations | Latest weather observations for QLD | Other Formats
Station Details ID: 035129 Name: ROLLESTON AIRPORT Lat: -24.46 Lon: 148.63 Height: 219.45 m
Data from the previous 72 hours. | See also: Recent months at Rolleston Airport
Date/Time
EST
Temp
°C
App
Temp
°C
Dew
Point
Rel
Hum
%
Delta-T
°C
Wind Press
QNH
hPa
Press
MSL
hPa
Rain
since 9 am
mm
Dir
 
Spd
km/h
Gust
km/h
Spd
kts
Gust
kts
21/11:30pm 25.1 26.6 19.0 69 3.9 NNE 9 15 5 8 1015.2 1013.8 0.0
21/11:00pm 25.7 25.8 18.4 64 4.7 NNE 15 20 8 11 1014.8 1013.4 0.0
21/10:30pm 26.4 26.7 18.0 60 5.4 NNE 13 19 7 10 1014.8 1013.4 0.0
21/10:00pm 25.6 27.6 17.8 62 4.9 N 4 6 2 3 1014.4 1013.0 0.0
21/09:30pm 27.2 28.3 17.1 54 6.4 NE 7 9 4 5 1014.2 1012.8 0.0
21/09:00pm 27.3 28.4 17.2 54 6.4 NE 7 9 4 5 1013.9 1012.5 0.0
21/08:30pm 27.3 28.4 17.2 54 6.4 ENE 7 9 4 5 1013.7 1012.3 0.0
21/08:00pm 28.0 29.1 17.2 52 6.8 ENE 7 9 4 5 1013.4 1012.0 0.0
21/07:30pm 29.3 30.3 16.8 47 7.9 NE 7 7 4 4 1013.1 1011.7 0.0
21/07:00pm 30.1 31.8 17.2 46 8.2 NE 4 6 2 3 1013.0 1011.6 0.0
21/06:30pm 31.1 31.7 15.9 40 9.5 NNE 7 11 4 6 1012.8 1011.4 0.0
21/06:00pm 31.9 32.5 15.8 38 10.1 NNE 7 9 4 5 1012.6 1011.2 0.0
21/05:30pm 32.0 32.2 14.6 34 10.7 N 7 13 4 7 1012.3 1010.9 0.0
21/05:00pm 31.9 31.6 14.5 34 10.7 N 9 13 5 7 1012.2 1010.8 0.0
21/04:30pm 32.5 32.3 14.6 34 11.1 N 9 17 5 9 1012.2 1010.8 0.0
21/04:00pm 32.1 32.2 13.8 33 11.2 ENE 6 13 3 7 1012.5 1011.1 0.0
21/03:30pm 32.0 32.0 13.7 33 11.2 NNE 6 17 3 9 1012.7 1011.3 0.0
21/03:00pm 31.5 31.7 14.2 35 10.6 ENE 6 11 3 6 1013.4 1012.0 0.0
21/02:30pm 31.5 31.8 14.6 36 10.4 NNE 6 11 3 6 1013.9 1012.5 0.0
21/02:00pm 31.6 31.9 15.1 36 10.3 E 7 13 4 7 1014.3 1012.9 0.0
21/01:30pm 31.3 32.0 16.1 40 9.6 NE 7 15 4 8 1014.7 1013.3 0.0
21/01:00pm 30.5 31.4 16.1 41 9.0 NNE 6 15 3 8 1015.2 1013.8 0.0
21/12:30pm 30.0 30.8 16.4 44 8.6 ENE 7 13 4 7 1015.7 1014.3 0.0
21/12:00pm 29.6 30.8 16.8 46 8.1 NNE 6 17 3 9 1016.3 1015.0 0.0
21/11:30am 28.7 29.6 16.6 48 7.6 NNE 7 15 4 8 1016.8 1015.4 0.0
21/11:00am 28.7 29.7 16.9 48 7.4 NNE 7 13 4 7 1017.1 1015.7 0.0
21/10:30am 27.8 28.9 17.0 51 6.8 N 7 15 4 8 1017.2 1015.8 0.0
21/10:00am 28.0 29.6 17.8 54 6.5 ENE 6 13 3 7 1017.3 1015.9 0.0
21/09:30am 27.2 29.0 18.2 58 5.8 NE 6 11 3 6 1017.4 1016.0 0.0
21/09:00am 26.4 28.1 17.2 57 5.8 NE 4 9 2 5 1017.5 1016.1 0.0
21/08:30am 26.0 27.4 17.9 61 5.1 NNE 7 13 4 7 1017.3 1015.9 0.0
21/08:00am 25.0 26.3 17.5 63 4.7 NE 7 11 4 6 1017.1 1015.7 0.0
21/07:30am 25.0 26.7 18.4 66 4.2 E 7 13 4 7 1016.5 1015.2 0.0
21/07:00am 23.7 26.0 18.6 73 3.2 SSE 4 7 2 4 1016.5 1015.2 0.0
21/06:30am 22.1 24.1 17.9 77 2.6 S 4 6 2 3 1016.1 1014.8 0.0
21/06:00am 20.5 22.2 17.1 81 2.1 S 4 6 2 3 1015.6 1014.2 0.0
21/05:30am 19.6 21.0 16.3 81 2.0 SSW 4 6 2 3 1015.0 1013.6 0.0
21/05:00am 20.1 21.6 15.7 76 2.6 SSE 2 2 1 1 1014.4 1013.0 0.0
21/04:30am 21.2 22.2 15.3 69 3.5 ESE 4 6 2 3 1013.9 1012.5 0.0
21/04:00am 21.6 22.4 14.7 65 4.1 E 4 6 2 3 1013.6 1012.2 0.0
21/03:30am 21.9 22.3 14.8 64 4.2 E 6 7 3 4 1013.3 1011.9 0.0
21/03:00am 21.7 22.8 16.6 73 3.1 E 6 7 3 4 1013.0 1011.6 0.0
21/02:30am 22.1 23.4 17.0 73 3.2 E 6 6 3 3 1012.9 1011.5 0.0
21/02:00am 22.4 24.2 17.5 74 3.1 NE 4 4 2 2 1013.0 1011.6 0.0
21/01:30am 22.8 24.2 17.3 71 3.4 SE 6 6 3 3 1013.3 1011.9 0.0
21/01:00am 22.6 24.8 17.5 73 3.2 SSE 2 4 1 2 1013.3 1011.9 0.0
21/12:30am 23.0 25.0 17.0 69 3.7 NW 2 4 1 2 1013.1 1011.7 0.0
21/12:00am 23.3 24.7 17.3 69 3.7 N 6 7 3 4 1013.1 1011.7 0.0
 
Date/Time
EST
Temp
°C
App
Temp
°C
Dew
Point
Rel
Hum
%
Delta-T
°C
Wind Press
QNH
hPa
Press
MSL
hPa
Rain
since 9 am
mm
Dir
 
Spd
km/h
Gust
km/h
Spd
kts
Gust
kts
20/11:30pm 23.8 25.2 17.3 67 4.1 N 6 7 3 4 1013.3 1011.9 0.0
20/11:00pm 24.4 25.6 17.4 65 4.4 N 7 9 4 5 1013.3 1011.9 0.0
20/10:30pm 25.5 26.3 17.4 61 5.1 NNE 9 11 5 6 1013.4 1012.0 0.0
20/10:00pm 25.3 27.1 17.5 62 4.9 NNW 4 6 2 3 1013.3 1011.9 0.0
20/09:30pm 25.9 27.7 17.3 59 5.4 N 4 7 2 4 1013.0 1011.6 0.0
20/09:00pm 26.6 27.5 16.2 52 6.5 NNE 6 9 3 5 1012.6 1011.2 0.0
20/08:30pm 28.9 28.5 15.1 43 8.5 ENE 11 13 6 7 1012.4 1011.0 0.0
20/08:00pm 28.4 29.1 16.0 47 7.7 ENE 7 9 4 5 1012.2 1010.8 0.0
20/07:30pm 30.0 30.0 15.3 41 9.1 ENE 9 13 5 7 1011.7 1010.3 0.0
20/07:00pm 30.9 30.8 14.9 37 9.9 ENE 9 11 5 6 1011.6 1010.2 0.0
20/06:30pm 32.2 31.9 14.3 33 11.0 ENE 9 13 5 7 1011.3 1009.9 0.0
20/06:00pm 32.8 30.9 12.9 29 12.0 ENE 15 20 8 11 1011.0 1009.6 0.0
20/05:30pm 33.1 31.8 13.7 31 11.9 ENE 13 19 7 10 1010.7 1009.3 0.0
20/05:00pm 33.3 33.6 14.4 32 11.7 ENE 6 7 3 4 1010.5 1009.1 0.0
20/04:30pm 33.5 33.6 14.5 31 11.8 NE 7 11 4 6 1010.3 1008.9 0.0
20/04:00pm 34.0 34.1 14.5 31 12.1 ENE 7 13 4 7 1010.3 1008.9 0.0
20/03:30pm 33.4 32.2 14.0 31 11.9 E 13 20 7 11 1010.6 1009.2 0.0
20/03:00pm 33.0 33.0 13.6 31 11.9 ENE 6 15 3 8 1010.9 1009.5 0.0
20/02:30pm 33.3 32.1 12.9 29 12.3 NNE 11 20 6 11 1011.3 1009.9 0.0
20/02:00pm 33.9 33.4 14.9 32 11.9 ENE 11 17 6 9 1011.5 1010.1 0.0
20/01:30pm 33.8 32.8 13.3 29 12.5 NE 11 17 6 9 1012.1 1010.7 0.0
20/01:00pm 33.3 33.0 13.4 30 12.1 ENE 7 13 4 7 1012.6 1011.2 0.0
20/12:30pm 32.8 32.7 13.9 31 11.6 NNW 7 11 4 6 1013.0 1011.6 0.0
20/12:00pm 32.5 32.0 13.7 32 11.5 NNW 9 17 5 9 1013.4 1012.0 0.0
20/11:30am 32.1 32.6 15.1 35 10.6 E 6 13 3 7 1013.8 1012.4 0.0
20/11:00am 31.6 32.5 16.7 40 9.5 ENE 7 15 4 8 1014.3 1012.9 0.0
20/10:30am 30.7 30.6 13.9 36 10.2 ENE 7 17 4 9 1014.5 1013.1 0.0
20/10:00am 30.1 30.7 15.4 41 9.1 NNW 6 11 3 6 1014.8 1013.4 0.0
20/09:30am 29.5 31.6 18.0 50 7.4 SW 4 9 2 5 1014.8 1013.4 0.0
20/09:00am 28.1 30.1 19.1 58 5.9 NW 7 17 4 9 1015.0 1013.6 0.2
20/08:30am 27.3 29.7 20.1 64 4.7 W 7 9 4 5 1015.0 1013.6 0.2
20/08:00am 26.1 29.1 20.9 73 3.5 WNW 6 9 3 5 1014.7 1013.3 0.2
20/07:30am 24.6 28.2 21.3 82 2.2 NNW 4 7 2 4 1014.7 1013.3 0.2
20/07:00am 23.5 27.1 20.6 84 1.9 N 2 6 1 3 1014.4 1013.0 0.2
20/06:30am 22.9 26.5 20.6 87 1.5 NNE 2 7 1 4 1014.1 1012.7 0.2
20/06:00am 21.9 25.6 20.7 93 0.8 E 2 4 1 2 1013.6 1012.2 0.2
20/05:30am 20.8 23.8 20.1 96 0.5 E 4 7 2 4 1013.1 1011.7 0.2
20/05:00am 20.5 23.7 19.7 95 0.5 WNW 2 4 1 2 1012.7 1011.3 0.2
20/04:30am 20.5 23.5 19.3 93 0.8 N 2 4 1 2 1012.4 1011.0 0.2
20/04:00am 20.8 24.0 19.8 94 0.6 NE 2 6 1 3 1012.2 1010.8 0.2
20/03:30am 20.7 23.7 19.2 91 1.0 S 2 4 1 2 1012.2 1010.8 0.2
20/03:00am 21.1 24.7 19.7 92 0.9 CALM 0 0 0 0 1011.9 1010.4 0.2
20/02:30am 21.3 24.9 19.8 91 1.0 CALM 0 0 0 0 1011.9 1010.4 0.2
20/02:00am 21.2 23.7 19.8 92 0.9 S 6 7 3 4 1012.1 1010.7 0.2
20/01:30am 21.6 25.3 19.9 90 1.1 CALM 0 0 0 0 1012.2 1010.8 0.2
20/01:00am 22.2 25.5 19.9 87 1.5 WNW 2 6 1 3 1012.5 1011.1 0.2
20/12:30am 22.9 26.1 20.4 86 1.6 NNE 4 6 2 3 1012.7 1011.3 0.2
20/12:00am 23.0 25.7 20.3 85 1.8 N 6 6 3 3 1013.1 1011.7 0.2
 
Date/Time
EST
Temp
°C
App
Temp
°C
Dew
Point
Rel
Hum
%
Delta-T
°C
Wind Press
QNH
hPa
Press
MSL
hPa
Rain
since 9 am
mm
Dir
 
Spd
km/h
Gust
km/h
Spd
kts
Gust
kts
19/11:30pm 23.3 26.6 19.9 81 2.2 NNW 2 4 1 2 1013.5 1012.1 0.2
19/11:00pm 23.9 26.5 20.0 79 2.5 N 6 9 3 5 1013.7 1012.3 0.2
19/10:30pm 24.1 26.8 20.2 79 2.5 N 6 7 3 4 1013.7 1012.3 0.2
19/10:00pm 25.0 27.2 19.6 72 3.5 NE 7 9 4 5 1013.8 1012.4 0.2
19/09:30pm 25.9 27.7 19.5 68 4.2 NE 9 9 5 5 1013.7 1012.3 0.2
19/09:00pm 26.5 28.2 19.4 65 4.6 NE 9 9 5 5 1013.3 1011.9 0.2
19/08:30pm 26.6 28.4 19.5 65 4.6 ENE 9 9 5 5 1013.1 1011.7 0.2
19/08:00pm 27.1 29.3 19.2 62 5.1 ESE 6 9 3 5 1012.9 1011.5 0.2
19/07:30pm 28.1 30.6 18.2 55 6.4 SSE 2 6 1 3 1012.5 1011.1 0.2
19/07:00pm 29.5 31.3 17.3 47 7.8 S 4 6 2 3 1012.1 1010.7 0.2
19/06:30pm 30.8 32.5 17.1 43 8.7 S 4 6 2 3 1011.9 1010.4 0.2
19/06:00pm 31.3 32.2 16.5 41 9.4 S 7 11 4 6 1011.5 1010.1 0.2
19/05:30pm 31.4 31.4 16.2 40 9.6 SE 11 17 6 9 1011.2 1009.8 0.2
19/05:00pm 31.3 31.5 15.7 39 9.8 SSE 9 15 5 8 1011.1 1009.7 0.2
19/04:30pm 31.4 32.2 17.3 43 9.0 SE 9 15 5 8 1011.0 1009.6 0.2
19/04:00pm 30.9 31.8 16.1 41 9.3 SSE 6 13 3 7 1011.2 1009.8 0.2
19/03:30pm 30.8 32.2 16.4 42 9.1 E 4 7 2 4 1011.3 1009.9 0.2
19/03:00pm 30.6 32.0 17.7 46 8.3 SE 7 17 4 9 1011.6 1010.2 0.2
19/02:30pm 29.8 30.5 17.9 48 7.7 ESE 11 20 6 11 1012.1 1010.7 0.2
19/02:00pm 29.8 31.3 17.6 48 7.8 WSW 6 11 3 6 1012.4 1011.0 0.2
19/01:30pm 28.7 30.5 18.2 53 6.8 SSE 6 13 3 7 1013.0 1011.6 0.2
19/01:00pm 28.4 30.4 19.1 57 6.1 SE 7 15 4 8 1013.3 1011.9 0.2
19/12:30pm 28.2 29.6 18.6 56 6.2 SSE 9 15 5 8 1013.7 1012.3 0.2
19/12:00pm 27.5 29.6 19.0 59 5.5 ENE 6 13 3 7 1014.1 1012.7 0.2
19/11:30am 26.5 28.1 17.8 58 5.5 ENE 6 15 3 8 1014.4 1013.0 0.2
19/11:00am 25.7 27.1 17.9 62 5.0 E 7 13 4 7 1014.7 1013.3 0.2
19/10:30am 25.3 26.6 19.2 69 3.9 SE 11 15 6 8 1014.6 1013.2 0.2
19/10:00am 24.9 26.3 18.6 68 4.0 ESE 9 19 5 10 1014.6 1013.2 0.0
19/09:30am 24.1 25.8 19.4 75 3.0 SE 9 15 5 8 1014.8 1013.4 0.0
19/09:00am 22.9 24.8 18.9 78 2.6 SE 7 13 4 7 1014.8 1013.4 7.8
19/08:30am 22.5 24.9 19.7 84 1.8 SSE 6 9 3 5 1014.8 1013.4 7.8
19/08:00am 21.9 25.0 19.5 86 1.5 S 2 6 1 3 1014.8 1013.4 7.8
19/07:30am 21.4 23.9 19.9 91 1.0 SSE 6 9 3 5 1014.6 1013.2 7.8
19/07:00am 21.1 23.4 19.4 90 1.1 S 6 7 3 4 1014.6 1013.2 7.6
19/06:30am 21.0 23.3 19.5 91 1.0 S 6 9 3 5 1014.1 1012.7 7.4
19/06:00am 20.9 23.6 19.4 91 1.0 S 4 7 2 4 1013.7 1012.3 7.4
19/05:30am 20.7 22.9 19.2 91 1.0 SSE 6 9 3 5 1013.0 1011.6 7.4
19/05:00am 20.6 22.9 19.4 93 0.8 S 6 9 3 5 1012.9 1011.5 7.4
19/04:30am 20.5 22.7 19.2 92 0.8 SE 6 6 3 3 1012.4 1011.0 7.4
19/04:00am 20.5 22.7 19.2 92 0.8 S 6 9 3 5 1012.5 1011.1 7.4
19/03:30am 20.6 22.8 19.3 92 0.8 S 6 9 3 5 1012.6 1011.2 7.4
19/03:00am 20.6 22.9 19.4 93 0.8 S 6 9 3 5 1012.4 1011.0 7.4
19/02:30am 20.5 22.7 19.3 93 0.8 SSW 6 7 3 4 1012.5 1011.1 7.4
19/02:00am 20.3 22.8 19.1 93 0.8 SSE 4 6 2 3 1012.8 1011.4 7.4
19/01:30am 20.4 22.4 19.1 92 0.8 SE 7 11 4 6 1013.1 1011.7 7.4
19/01:00am 20.4 22.3 18.9 91 0.9 SE 7 9 4 5 1013.7 1012.3 7.4
19/12:30am 20.4 22.0 19.1 92 0.8 ESE 9 13 5 7 1014.1 1012.7 7.4
19/12:00am 20.6 22.3 19.3 92 0.8 E 9 17 5 9 1014.9 1013.5 7.2

Other Formats:

Comma delimited format used in spreadsheet applications
http://www.bom.gov.au/fwo/IDQ60801/IDQ60801.94396.axf

JavaScript Object Notation format (JSON) in row-major order
http://www.bom.gov.au/fwo/IDQ60801/IDQ60801.94396.json